sensor_id;sensor_type;location;lat;lon;timestamp;temperature;humidity
43679;DHT22;29279;50.858;4.392;2024-02-04T00:01:44;10.60;99.90
43679;DHT22;29279;50.858;4.392;2024-02-04T00:04:11;10.70;99.90
43679;DHT22;29279;50.858;4.392;2024-02-04T00:06:36;10.70;99.90
43679;DHT22;29279;50.858;4.392;2024-02-04T00:09:02;10.70;99.90
43679;DHT22;29279;50.858;4.392;2024-02-04T00:11:29;10.80;99.90
43679;DHT22;29279;50.858;4.392;2024-02-04T00:13:55;10.70;99.90
43679;DHT22;29279;50.858;4.392;2024-02-04T00:16:20;10.70;99.90
43679;DHT22;29279;50.858;4.392;2024-02-04T00:18:46;10.70;99.90
43679;DHT22;29279;50.858;4.392;2024-02-04T00:21:12;10.70;99.90
43679;DHT22;29279;50.858;4.392;2024-02-04T00:23:38;10.70;99.90
43679;DHT22;29279;50.858;4.392;2024-02-04T00:26:03;10.70;99.90
43679;DHT22;29279;50.858;4.392;2024-02-04T00:28:29;10.60;99.90
43679;DHT22;29279;50.858;4.392;2024-02-04T00:30:56;10.60;99.90
43679;DHT22;29279;50.858;4.392;2024-02-04T00:33:23;10.60;99.90
43679;DHT22;29279;50.858;4.392;2024-02-04T00:35:49;10.60;99.90
43679;DHT22;29279;50.858;4.392;2024-02-04T00:38:14;10.60;99.90
43679;DHT22;29279;50.858;4.392;2024-02-04T00:40:40;10.60;99.90
43679;DHT22;29279;50.858;4.392;2024-02-04T00:43:05;10.60;99.90
43679;DHT22;29279;50.858;4.392;2024-02-04T00:45:31;10.60;99.90
43679;DHT22;29279;50.858;4.392;2024-02-04T00:47:57;10.60;99.90
43679;DHT22;29279;50.858;4.392;2024-02-04T00:50:23;10.50;99.90
43679;DHT22;29279;50.858;4.392;2024-02-04T00:52:49;10.50;99.90
43679;DHT22;29279;50.858;4.392;2024-02-04T00:55:14;10.50;99.90
43679;DHT22;29279;50.858;4.392;2024-02-04T00:57:40;10.50;99.90
43679;DHT22;29279;50.858;4.392;2024-02-04T01:00:07;10.50;99.90
43679;DHT22;29279;50.858;4.392;2024-02-04T01:02:33;10.50;99.90
43679;DHT22;29279;50.858;4.392;2024-02-04T01:04:59;10.60;99.90
43679;DHT22;29279;50.858;4.392;2024-02-04T01:07:25;10.60;99.90
43679;DHT22;29279;50.858;4.392;2024-02-04T01:09:51;10.70;99.90
43679;DHT22;29279;50.858;4.392;2024-02-04T01:12:16;10.70;99.90
43679;DHT22;29279;50.858;4.392;2024-02-04T01:14:44;10.70;99.90
43679;DHT22;29279;50.858;4.392;2024-02-04T01:17:10;10.70;99.90
43679;DHT22;29279;50.858;4.392;2024-02-04T01:19:36;10.70;99.90
43679;DHT22;29279;50.858;4.392;2024-02-04T01:22:01;10.60;99.90
43679;DHT22;29279;50.858;4.392;2024-02-04T01:24:27;10.60;99.90
43679;DHT22;29279;50.858;4.392;2024-02-04T01:26:53;10.70;99.90
43679;DHT22;29279;50.858;4.392;2024-02-04T01:29:19;10.70;99.90
43679;DHT22;29279;50.858;4.392;2024-02-04T01:31:44;10.70;99.90
43679;DHT22;29279;50.858;4.392;2024-02-04T01:34:10;10.80;99.90
43679;DHT22;29279;50.858;4.392;2024-02-04T01:36:36;10.90;99.90
43679;DHT22;29279;50.858;4.392;2024-02-04T01:39:02;10.90;99.90
43679;DHT22;29279;50.858;4.392;2024-02-04T01:41:29;10.90;99.90
43679;DHT22;29279;50.858;4.392;2024-02-04T01:43:55;10.90;99.90
43679;DHT22;29279;50.858;4.392;2024-02-04T01:46:20;11.00;99.90
43679;DHT22;29279;50.858;4.392;2024-02-04T01:48:46;11.00;99.90
43679;DHT22;29279;50.858;4.392;2024-02-04T01:51:14;10.90;99.90
43679;DHT22;29279;50.858;4.392;2024-02-04T01:53:42;11.00;99.90
43679;DHT22;29279;50.858;4.392;2024-02-04T01:56:10;11.10;99.90
43679;DHT22;29279;50.858;4.392;2024-02-04T01:58:38;11.10;99.90
43679;DHT22;29279;50.858;4.392;2024-02-04T02:01:03;11.20;99.90
43679;DHT22;29279;50.858;4.392;2024-02-04T02:03:31;11.20;99.90
43679;DHT22;29279;50.858;4.392;2024-02-04T02:05:57;11.30;99.90
43679;DHT22;29279;50.858;4.392;2024-02-04T02:08:23;11.20;99.90
43679;DHT22;29279;50.858;4.392;2024-02-04T02:10:51;11.10;99.90
43679;DHT22;29279;50.858;4.392;2024-02-04T02:13:28;11.10;99.90
43679;DHT22;29279;50.858;4.392;2024-02-04T02:16:09;11.10;99.90
43679;DHT22;29279;50.858;4.392;2024-02-04T02:18:48;11.10;99.90
43679;DHT22;29279;50.858;4.392;2024-02-04T02:24:32;11.10;99.90
43679;DHT22;29279;50.858;4.392;2024-02-04T02:26:58;11.10;99.90
43679;DHT22;29279;50.858;4.392;2024-02-04T02:29:25;11.10;99.90
43679;DHT22;29279;50.858;4.392;2024-02-04T02:31:50;11.10;99.90
43679;DHT22;29279;50.858;4.392;2024-02-04T02:34:17;11.00;99.90
43679;DHT22;29279;50.858;4.392;2024-02-04T02:36:49;11.00;99.90
43679;DHT22;29279;50.858;4.392;2024-02-04T02:39:20;11.00;99.90
43679;DHT22;29279;50.858;4.392;2024-02-04T02:41:50;11.00;99.90
43679;DHT22;29279;50.858;4.392;2024-02-04T02:44:17;11.00;99.90
43679;DHT22;29279;50.858;4.392;2024-02-04T02:46:45;11.10;99.90
43679;DHT22;29279;50.858;4.392;2024-02-04T02:49:12;11.10;99.90
43679;DHT22;29279;50.858;4.392;2024-02-04T02:51:38;11.10;99.90
43679;DHT22;29279;50.858;4.392;2024-02-04T02:54:03;11.20;99.90
43679;DHT22;29279;50.858;4.392;2024-02-04T02:56:29;11.20;99.90
43679;DHT22;29279;50.858;4.392;2024-02-04T02:58:55;11.20;99.90
43679;DHT22;29279;50.858;4.392;2024-02-04T03:01:20;11.10;99.90
43679;DHT22;29279;50.858;4.392;2024-02-04T03:03:46;11.10;99.90
43679;DHT22;29279;50.858;4.392;2024-02-04T03:06:12;11.10;99.90
43679;DHT22;29279;50.858;4.392;2024-02-04T03:08:37;11.20;99.90
43679;DHT22;29279;50.858;4.392;2024-02-04T03:11:03;11.20;99.90
43679;DHT22;29279;50.858;4.392;2024-02-04T03:13:29;11.10;99.90
43679;DHT22;29279;50.858;4.392;2024-02-04T03:15:55;11.20;99.90
43679;DHT22;29279;50.858;4.392;2024-02-04T03:18:21;11.20;99.90
43679;DHT22;29279;50.858;4.392;2024-02-04T03:20:47;11.20;99.90
43679;DHT22;29279;50.858;4.392;2024-02-04T03:23:12;11.20;99.90
43679;DHT22;29279;50.858;4.392;2024-02-04T03:25:38;11.20;99.90
43679;DHT22;29279;50.858;4.392;2024-02-04T03:28:04;11.20;99.90
43679;DHT22;29279;50.858;4.392;2024-02-04T03:30:29;11.10;99.90
43679;DHT22;29279;50.858;4.392;2024-02-04T03:32:55;11.10;99.90
43679;DHT22;29279;50.858;4.392;2024-02-04T03:35:21;11.00;99.90
43679;DHT22;29279;50.858;4.392;2024-02-04T03:37:47;11.00;99.90
43679;DHT22;29279;50.858;4.392;2024-02-04T03:40:12;11.00;99.90
43679;DHT22;29279;50.858;4.392;2024-02-04T03:42:38;11.10;99.90
43679;DHT22;29279;50.858;4.392;2024-02-04T03:45:06;11.10;99.90
43679;DHT22;29279;50.858;4.392;2024-02-04T03:47:32;11.10;99.90
43679;DHT22;29279;50.858;4.392;2024-02-04T03:49:57;11.10;99.90
43679;DHT22;29279;50.858;4.392;2024-02-04T03:52:23;11.20;99.90
43679;DHT22;29279;50.858;4.392;2024-02-04T03:54:50;11.20;99.90
43679;DHT22;29279;50.858;4.392;2024-02-04T03:57:16;11.20;99.90
43679;DHT22;29279;50.858;4.392;2024-02-04T03:59:44;11.20;99.90
43679;DHT22;29279;50.858;4.392;2024-02-04T04:02:11;11.30;99.90
43679;DHT22;29279;50.858;4.392;2024-02-04T04:04:39;11.30;99.90
43679;DHT22;29279;50.858;4.392;2024-02-04T04:07:06;11.30;99.90
43679;DHT22;29279;50.858;4.392;2024-02-04T04:09:32;11.20;99.90
43679;DHT22;29279;50.858;4.392;2024-02-04T04:11:58;11.30;99.90
43679;DHT22;29279;50.858;4.392;2024-02-04T04:14:23;11.30;99.90
43679;DHT22;29279;50.858;4.392;2024-02-04T04:16:49;11.30;99.90
43679;DHT22;29279;50.858;4.392;2024-02-04T04:19:15;11.20;99.90
43679;DHT22;29279;50.858;4.392;2024-02-04T04:21:40;11.20;99.90
43679;DHT22;29279;50.858;4.392;2024-02-04T04:24:06;11.20;99.90
43679;DHT22;29279;50.858;4.392;2024-02-04T04:26:32;11.20;99.90
43679;DHT22;29279;50.858;4.392;2024-02-04T04:28:59;11.20;99.90
43679;DHT22;29279;50.858;4.392;2024-02-04T04:31:24;11.30;99.90
43679;DHT22;29279;50.858;4.392;2024-02-04T04:33:50;11.20;99.90
43679;DHT22;29279;50.858;4.392;2024-02-04T04:36:17;11.10;99.90
43679;DHT22;29279;50.858;4.392;2024-02-04T04:38:43;11.10;99.90
43679;DHT22;29279;50.858;4.392;2024-02-04T04:41:09;11.10;99.90
43679;DHT22;29279;50.858;4.392;2024-02-04T04:43:37;11.00;99.90
43679;DHT22;29279;50.858;4.392;2024-02-04T04:46:03;11.00;99.90
43679;DHT22;29279;50.858;4.392;2024-02-04T04:48:29;11.00;99.90
43679;DHT22;29279;50.858;4.392;2024-02-04T04:50:55;11.00;99.90
43679;DHT22;29279;50.858;4.392;2024-02-04T04:53:23;11.00;99.90
43679;DHT22;29279;50.858;4.392;2024-02-04T04:55:49;11.00;99.90
43679;DHT22;29279;50.858;4.392;2024-02-04T04:58:17;11.00;99.90
43679;DHT22;29279;50.858;4.392;2024-02-04T05:00:43;11.00;99.90
43679;DHT22;29279;50.858;4.392;2024-02-04T05:03:08;10.90;99.90
43679;DHT22;29279;50.858;4.392;2024-02-04T05:05:34;10.90;99.90
43679;DHT22;29279;50.858;4.392;2024-02-04T05:08:00;10.90;99.90
43679;DHT22;29279;50.858;4.392;2024-02-04T05:10:25;10.90;99.90
43679;DHT22;29279;50.858;4.392;2024-02-04T05:12:51;10.90;99.90
43679;DHT22;29279;50.858;4.392;2024-02-04T05:15:17;10.90;99.90
43679;DHT22;29279;50.858;4.392;2024-02-04T05:17:43;10.90;99.90
43679;DHT22;29279;50.858;4.392;2024-02-04T05:20:09;11.00;99.90
43679;DHT22;29279;50.858;4.392;2024-02-04T05:22:34;11.10;99.90
43679;DHT22;29279;50.858;4.392;2024-02-04T05:25:00;11.10;99.90
43679;DHT22;29279;50.858;4.392;2024-02-04T05:27:26;11.00;99.90
43679;DHT22;29279;50.858;4.392;2024-02-04T05:29:52;11.00;99.90
43679;DHT22;29279;50.858;4.392;2024-02-04T05:32:17;11.10;99.90
43679;DHT22;29279;50.858;4.392;2024-02-04T05:34:43;11.10;99.90
43679;DHT22;29279;50.858;4.392;2024-02-04T05:37:12;11.10;99.90
43679;DHT22;29279;50.858;4.392;2024-02-04T05:39:37;11.20;99.90
43679;DHT22;29279;50.858;4.392;2024-02-04T05:42:03;11.20;99.90
43679;DHT22;29279;50.858;4.392;2024-02-04T05:44:29;11.20;99.90
43679;DHT22;29279;50.858;4.392;2024-02-04T05:46:54;11.30;99.90
43679;DHT22;29279;50.858;4.392;2024-02-04T05:49:21;11.20;99.90
43679;DHT22;29279;50.858;4.392;2024-02-04T05:51:47;11.20;99.90
43679;DHT22;29279;50.858;4.392;2024-02-04T05:54:13;11.20;99.90
43679;DHT22;29279;50.858;4.392;2024-02-04T05:56:38;11.30;99.90
43679;DHT22;29279;50.858;4.392;2024-02-04T05:59:04;11.30;99.90
43679;DHT22;29279;50.858;4.392;2024-02-04T06:01:30;11.30;99.90
43679;DHT22;29279;50.858;4.392;2024-02-04T06:03:56;11.20;99.90
43679;DHT22;29279;50.858;4.392;2024-02-04T06:06:22;11.20;99.90
43679;DHT22;29279;50.858;4.392;2024-02-04T06:08:48;11.10;99.90
43679;DHT22;29279;50.858;4.392;2024-02-04T06:11:14;11.10;99.90
43679;DHT22;29279;50.858;4.392;2024-02-04T06:13:41;11.10;99.90
43679;DHT22;29279;50.858;4.392;2024-02-04T06:16:07;11.00;99.90
43679;DHT22;29279;50.858;4.392;2024-02-04T06:18:35;11.10;99.90
43679;DHT22;29279;50.858;4.392;2024-02-04T06:21:03;11.00;99.90
43679;DHT22;29279;50.858;4.392;2024-02-04T06:23:28;11.00;99.90
43679;DHT22;29279;50.858;4.392;2024-02-04T06:25:54;11.00;99.90
43679;DHT22;29279;50.858;4.392;2024-02-04T06:28:20;11.00;99.90
43679;DHT22;29279;50.858;4.392;2024-02-04T06:30:45;11.00;99.90
43679;DHT22;29279;50.858;4.392;2024-02-04T06:33:11;11.00;99.90
43679;DHT22;29279;50.858;4.392;2024-02-04T06:35:37;10.90;99.90
43679;DHT22;29279;50.858;4.392;2024-02-04T06:38:02;10.90;99.90
43679;DHT22;29279;50.858;4.392;2024-02-04T06:40:28;10.90;99.90
43679;DHT22;29279;50.858;4.392;2024-02-04T06:42:54;10.90;99.90
43679;DHT22;29279;50.858;4.392;2024-02-04T06:45:19;10.90;99.90
43679;DHT22;29279;50.858;4.392;2024-02-04T06:47:48;10.90;99.90
43679;DHT22;29279;50.858;4.392;2024-02-04T06:50:14;10.90;99.90
43679;DHT22;29279;50.858;4.392;2024-02-04T06:52:41;11.00;99.90
43679;DHT22;29279;50.858;4.392;2024-02-04T06:55:08;11.00;99.90
43679;DHT22;29279;50.858;4.392;2024-02-04T06:57:34;11.00;99.90
43679;DHT22;29279;50.858;4.392;2024-02-04T06:59:59;10.90;99.90
43679;DHT22;29279;50.858;4.392;2024-02-04T07:02:25;10.90;99.90
43679;DHT22;29279;50.858;4.392;2024-02-04T07:04:51;10.80;99.90
43679;DHT22;29279;50.858;4.392;2024-02-04T07:07:18;10.80;99.90
43679;DHT22;29279;50.858;4.392;2024-02-04T07:09:43;10.80;99.90
43679;DHT22;29279;50.858;4.392;2024-02-04T07:12:09;10.80;99.90
43679;DHT22;29279;50.858;4.392;2024-02-04T07:14:34;10.90;99.90
43679;DHT22;29279;50.858;4.392;2024-02-04T07:17:00;10.90;99.90
43679;DHT22;29279;50.858;4.392;2024-02-04T07:19:26;10.90;99.90
43679;DHT22;29279;50.858;4.392;2024-02-04T07:21:51;10.90;99.90
43679;DHT22;29279;50.858;4.392;2024-02-04T07:24:17;10.90;99.90
43679;DHT22;29279;50.858;4.392;2024-02-04T07:26:45;10.90;99.90
43679;DHT22;29279;50.858;4.392;2024-02-04T07:29:12;10.90;99.90
43679;DHT22;29279;50.858;4.392;2024-02-04T07:31:37;10.90;99.90
43679;DHT22;29279;50.858;4.392;2024-02-04T07:34:04;10.90;99.90
43679;DHT22;29279;50.858;4.392;2024-02-04T07:36:30;10.90;99.90
43679;DHT22;29279;50.858;4.392;2024-02-04T07:38:56;10.90;99.90
43679;DHT22;29279;50.858;4.392;2024-02-04T07:41:22;10.90;99.90
43679;DHT22;29279;50.858;4.392;2024-02-04T07:43:48;10.90;99.90
43679;DHT22;29279;50.858;4.392;2024-02-04T07:46:14;10.90;99.90
43679;DHT22;29279;50.858;4.392;2024-02-04T07:48:40;11.00;99.90
43679;DHT22;29279;50.858;4.392;2024-02-04T07:51:06;10.90;99.90
43679;DHT22;29279;50.858;4.392;2024-02-04T07:53:33;11.00;99.90
43679;DHT22;29279;50.858;4.392;2024-02-04T07:55:59;11.10;99.90
43679;DHT22;29279;50.858;4.392;2024-02-04T07:58:25;11.10;99.90
43679;DHT22;29279;50.858;4.392;2024-02-04T08:00:53;11.10;99.90
43679;DHT22;29279;50.858;4.392;2024-02-04T08:03:20;11.10;99.90
43679;DHT22;29279;50.858;4.392;2024-02-04T08:05:46;11.10;99.90
43679;DHT22;29279;50.858;4.392;2024-02-04T08:08:12;11.00;99.90
43679;DHT22;29279;50.858;4.392;2024-02-04T08:10:38;11.00;99.90
43679;DHT22;29279;50.858;4.392;2024-02-04T08:13:04;11.00;99.90
43679;DHT22;29279;50.858;4.392;2024-02-04T08:15:29;11.00;99.90
43679;DHT22;29279;50.858;4.392;2024-02-04T08:17:55;11.00;99.90
43679;DHT22;29279;50.858;4.392;2024-02-04T08:20:21;11.00;99.90
43679;DHT22;29279;50.858;4.392;2024-02-04T08:22:47;11.00;99.90
43679;DHT22;29279;50.858;4.392;2024-02-04T08:25:13;11.00;99.90
43679;DHT22;29279;50.858;4.392;2024-02-04T08:27:38;10.90;99.90
43679;DHT22;29279;50.858;4.392;2024-02-04T08:30:05;10.90;99.90
43679;DHT22;29279;50.858;4.392;2024-02-04T08:32:31;10.90;99.90
43679;DHT22;29279;50.858;4.392;2024-02-04T08:34:57;10.90;99.90
43679;DHT22;29279;50.858;4.392;2024-02-04T08:37:22;10.90;99.90
43679;DHT22;29279;50.858;4.392;2024-02-04T08:39:48;10.90;99.90
43679;DHT22;29279;50.858;4.392;2024-02-04T08:42:15;10.90;99.90
43679;DHT22;29279;50.858;4.392;2024-02-04T08:44:41;11.00;99.90
43679;DHT22;29279;50.858;4.392;2024-02-04T08:47:07;11.00;99.90
43679;DHT22;29279;50.858;4.392;2024-02-04T08:49:38;11.00;99.90
43679;DHT22;29279;50.858;4.392;2024-02-04T08:52:04;11.10;99.90
43679;DHT22;29279;50.858;4.392;2024-02-04T08:54:29;11.10;99.90
43679;DHT22;29279;50.858;4.392;2024-02-04T08:56:56;11.10;99.90
43679;DHT22;29279;50.858;4.392;2024-02-04T08:59:22;11.10;99.90
43679;DHT22;29279;50.858;4.392;2024-02-04T09:01:52;11.10;99.90
43679;DHT22;29279;50.858;4.392;2024-02-04T09:04:18;11.10;99.90
43679;DHT22;29279;50.858;4.392;2024-02-04T09:06:43;11.10;99.90
43679;DHT22;29279;50.858;4.392;2024-02-04T09:09:09;11.10;99.90
43679;DHT22;29279;50.858;4.392;2024-02-04T09:11:36;11.10;99.90
43679;DHT22;29279;50.858;4.392;2024-02-04T09:14:02;11.10;99.90
43679;DHT22;29279;50.858;4.392;2024-02-04T09:16:29;11.10;99.90
43679;DHT22;29279;50.858;4.392;2024-02-04T09:18:55;11.10;99.90
43679;DHT22;29279;50.858;4.392;2024-02-04T09:21:20;11.10;99.90
43679;DHT22;29279;50.858;4.392;2024-02-04T09:23:47;11.10;99.90
43679;DHT22;29279;50.858;4.392;2024-02-04T09:26:13;11.20;99.90
43679;DHT22;29279;50.858;4.392;2024-02-04T09:28:38;11.20;99.90
43679;DHT22;29279;50.858;4.392;2024-02-04T09:31:07;11.20;99.90
43679;DHT22;29279;50.858;4.392;2024-02-04T09:33:33;11.20;99.90
43679;DHT22;29279;50.858;4.392;2024-02-04T09:35:59;11.10;99.90
43679;DHT22;29279;50.858;4.392;2024-02-04T09:38:24;11.20;99.90
43679;DHT22;29279;50.858;4.392;2024-02-04T09:40:50;11.10;99.90
43679;DHT22;29279;50.858;4.392;2024-02-04T09:43:16;11.20;99.90
43679;DHT22;29279;50.858;4.392;2024-02-04T09:45:42;11.20;99.90
43679;DHT22;29279;50.858;4.392;2024-02-04T09:48:08;11.20;99.90
43679;DHT22;29279;50.858;4.392;2024-02-04T09:50:35;11.20;99.90
43679;DHT22;29279;50.858;4.392;2024-02-04T09:53:03;11.20;99.90
43679;DHT22;29279;50.858;4.392;2024-02-04T09:55:33;11.20;99.90
43679;DHT22;29279;50.858;4.392;2024-02-04T09:57:59;11.10;99.90
43679;DHT22;29279;50.858;4.392;2024-02-04T10:00:27;11.20;99.90
43679;DHT22;29279;50.858;4.392;2024-02-04T10:02:55;11.20;99.90
43679;DHT22;29279;50.858;4.392;2024-02-04T10:05:21;11.10;99.90
43679;DHT22;29279;50.858;4.392;2024-02-04T10:07:47;11.10;99.90
43679;DHT22;29279;50.858;4.392;2024-02-04T10:10:13;11.20;99.90
43679;DHT22;29279;50.858;4.392;2024-02-04T10:12:38;11.20;99.90
43679;DHT22;29279;50.858;4.392;2024-02-04T10:15:07;11.20;99.90
43679;DHT22;29279;50.858;4.392;2024-02-04T10:17:33;11.30;99.90
43679;DHT22;29279;50.858;4.392;2024-02-04T10:19:59;11.30;99.90
43679;DHT22;29279;50.858;4.392;2024-02-04T10:22:26;11.30;99.90
43679;DHT22;29279;50.858;4.392;2024-02-04T10:24:53;11.40;99.90
43679;DHT22;29279;50.858;4.392;2024-02-04T10:27:19;11.40;99.90
43679;DHT22;29279;50.858;4.392;2024-02-04T10:29:45;11.50;99.90
43679;DHT22;29279;50.858;4.392;2024-02-04T10:32:11;11.30;99.90
43679;DHT22;29279;50.858;4.392;2024-02-04T10:34:38;11.40;99.90
43679;DHT22;29279;50.858;4.392;2024-02-04T10:37:05;11.40;99.90
43679;DHT22;29279;50.858;4.392;2024-02-04T10:39:30;11.40;99.90
43679;DHT22;29279;50.858;4.392;2024-02-04T10:42:02;11.40;99.90
43679;DHT22;29279;50.858;4.392;2024-02-04T10:44:33;11.40;99.90
43679;DHT22;29279;50.858;4.392;2024-02-04T10:47:05;11.40;99.90
43679;DHT22;29279;50.858;4.392;2024-02-04T10:49:32;11.40;99.90
43679;DHT22;29279;50.858;4.392;2024-02-04T10:52:00;11.50;99.90
43679;DHT22;29279;50.858;4.392;2024-02-04T10:54:30;11.50;99.90
43679;DHT22;29279;50.858;4.392;2024-02-04T10:57:00;11.60;99.90
43679;DHT22;29279;50.858;4.392;2024-02-04T10:59:29;11.60;99.90
43679;DHT22;29279;50.858;4.392;2024-02-04T11:01:57;11.60;99.90
43679;DHT22;29279;50.858;4.392;2024-02-04T11:04:23;11.60;99.90
43679;DHT22;29279;50.858;4.392;2024-02-04T11:06:49;11.60;99.90
43679;DHT22;29279;50.858;4.392;2024-02-04T11:09:16;11.40;99.90
43679;DHT22;29279;50.858;4.392;2024-02-04T11:11:43;11.50;99.90
43679;DHT22;29279;50.858;4.392;2024-02-04T11:14:13;11.50;99.90
43679;DHT22;29279;50.858;4.392;2024-02-04T11:27:40;11.50;99.90
43679;DHT22;29279;50.858;4.392;2024-02-04T11:30:07;11.60;99.90
43679;DHT22;29279;50.858;4.392;2024-02-04T11:32:35;11.50;99.90
43679;DHT22;29279;50.858;4.392;2024-02-04T11:35:02;11.50;99.90
43679;DHT22;29279;50.858;4.392;2024-02-04T11:37:28;11.60;99.90
43679;DHT22;29279;50.858;4.392;2024-02-04T11:39:56;11.60;99.90
43679;DHT22;29279;50.858;4.392;2024-02-04T11:42:31;11.60;99.90
43679;DHT22;29279;50.858;4.392;2024-02-04T11:45:16;11.60;99.90
43679;DHT22;29279;50.858;4.392;2024-02-04T11:47:42;11.50;99.90
43679;DHT22;29279;50.858;4.392;2024-02-04T11:50:09;11.50;99.90
43679;DHT22;29279;50.858;4.392;2024-02-04T11:52:35;11.50;99.90
43679;DHT22;29279;50.858;4.392;2024-02-04T11:55:01;11.50;99.90
43679;DHT22;29279;50.858;4.392;2024-02-04T11:57:27;11.60;99.90
43679;DHT22;29279;50.858;4.392;2024-02-04T11:59:54;11.60;99.90
43679;DHT22;29279;50.858;4.392;2024-02-04T12:02:20;11.60;99.90
43679;DHT22;29279;50.858;4.392;2024-02-04T12:04:48;11.60;99.90
43679;DHT22;29279;50.858;4.392;2024-02-04T12:07:15;11.60;99.90
43679;DHT22;29279;50.858;4.392;2024-02-04T12:09:42;11.60;99.90
43679;DHT22;29279;50.858;4.392;2024-02-04T12:12:08;11.50;99.90
43679;DHT22;29279;50.858;4.392;2024-02-04T12:14:35;11.50;99.90
43679;DHT22;29279;50.858;4.392;2024-02-04T12:17:10;11.50;99.90
43679;DHT22;29279;50.858;4.392;2024-02-04T12:19:37;11.50;99.90
43679;DHT22;29279;50.858;4.392;2024-02-04T12:22:04;11.50;99.90
43679;DHT22;29279;50.858;4.392;2024-02-04T12:24:38;11.60;99.90
43679;DHT22;29279;50.858;4.392;2024-02-04T12:27:04;11.60;99.90
43679;DHT22;29279;50.858;4.392;2024-02-04T12:29:31;11.60;99.90
43679;DHT22;29279;50.858;4.392;2024-02-04T12:32:02;11.60;99.90
43679;DHT22;29279;50.858;4.392;2024-02-04T12:34:29;11.50;99.90
43679;DHT22;29279;50.858;4.392;2024-02-04T12:36:59;11.50;99.90
43679;DHT22;29279;50.858;4.392;2024-02-04T12:39:25;11.50;99.90
43679;DHT22;29279;50.858;4.392;2024-02-04T12:41:51;11.50;99.90
43679;DHT22;29279;50.858;4.392;2024-02-04T12:44:18;11.50;99.90
43679;DHT22;29279;50.858;4.392;2024-02-04T12:46:44;11.50;99.90
43679;DHT22;29279;50.858;4.392;2024-02-04T12:49:10;11.50;99.90
43679;DHT22;29279;50.858;4.392;2024-02-04T12:51:36;11.50;99.90
43679;DHT22;29279;50.858;4.392;2024-02-04T12:54:09;11.40;99.90
43679;DHT22;29279;50.858;4.392;2024-02-04T12:59:27;11.50;99.90
43679;DHT22;29279;50.858;4.392;2024-02-04T13:01:54;11.60;99.90
43679;DHT22;29279;50.858;4.392;2024-02-04T13:04:21;11.60;99.90
43679;DHT22;29279;50.858;4.392;2024-02-04T13:06:47;11.70;99.90
43679;DHT22;29279;50.858;4.392;2024-02-04T13:09:16;11.80;99.90
43679;DHT22;29279;50.858;4.392;2024-02-04T13:11:43;11.80;99.90
43679;DHT22;29279;50.858;4.392;2024-02-04T13:14:09;11.80;99.90
43679;DHT22;29279;50.858;4.392;2024-02-04T13:16:34;11.70;99.90
43679;DHT22;29279;50.858;4.392;2024-02-04T13:19:03;11.70;99.90
43679;DHT22;29279;50.858;4.392;2024-02-04T13:21:29;11.70;99.90
43679;DHT22;29279;50.858;4.392;2024-02-04T13:23:56;11.60;99.90
43679;DHT22;29279;50.858;4.392;2024-02-04T13:26:21;11.60;99.90
43679;DHT22;29279;50.858;4.392;2024-02-04T13:28:48;11.60;99.90
43679;DHT22;29279;50.858;4.392;2024-02-04T13:31:14;11.60;99.90
43679;DHT22;29279;50.858;4.392;2024-02-04T13:33:40;11.60;99.90
43679;DHT22;29279;50.858;4.392;2024-02-04T13:36:07;11.60;99.90
43679;DHT22;29279;50.858;4.392;2024-02-04T13:38:34;11.50;99.90
43679;DHT22;29279;50.858;4.392;2024-02-04T13:41:00;11.50;99.90
43679;DHT22;29279;50.858;4.392;2024-02-04T13:43:26;11.40;99.90
43679;DHT22;29279;50.858;4.392;2024-02-04T13:45:52;11.40;99.90
43679;DHT22;29279;50.858;4.392;2024-02-04T13:48:18;11.40;99.90
43679;DHT22;29279;50.858;4.392;2024-02-04T13:50:44;11.40;99.90
43679;DHT22;29279;50.858;4.392;2024-02-04T13:53:11;11.40;99.90
43679;DHT22;29279;50.858;4.392;2024-02-04T13:55:37;11.40;99.90
43679;DHT22;29279;50.858;4.392;2024-02-04T13:58:03;11.30;99.90
43679;DHT22;29279;50.858;4.392;2024-02-04T14:00:29;11.30;99.90
43679;DHT22;29279;50.858;4.392;2024-02-04T14:02:54;11.30;99.90
43679;DHT22;29279;50.858;4.392;2024-02-04T14:05:20;11.30;99.90
43679;DHT22;29279;50.858;4.392;2024-02-04T14:07:46;11.30;99.90
43679;DHT22;29279;50.858;4.392;2024-02-04T14:10:12;11.30;99.90
43679;DHT22;29279;50.858;4.392;2024-02-04T14:12:40;11.30;99.90
43679;DHT22;29279;50.858;4.392;2024-02-04T14:15:09;11.30;99.90
43679;DHT22;29279;50.858;4.392;2024-02-04T14:17:35;11.40;99.90
43679;DHT22;29279;50.858;4.392;2024-02-04T14:20:01;11.50;99.90
43679;DHT22;29279;50.858;4.392;2024-02-04T14:22:28;11.50;99.90
43679;DHT22;29279;50.858;4.392;2024-02-04T14:24:53;11.60;99.90
43679;DHT22;29279;50.858;4.392;2024-02-04T14:27:19;11.60;99.90
43679;DHT22;29279;50.858;4.392;2024-02-04T14:29:45;11.60;99.90
43679;DHT22;29279;50.858;4.392;2024-02-04T14:32:10;11.60;99.90
43679;DHT22;29279;50.858;4.392;2024-02-04T14:34:36;11.50;99.90
43679;DHT22;29279;50.858;4.392;2024-02-04T14:37:02;11.40;99.90
43679;DHT22;29279;50.858;4.392;2024-02-04T14:39:28;11.30;99.90
43679;DHT22;29279;50.858;4.392;2024-02-04T14:41:57;11.20;99.90
43679;DHT22;29279;50.858;4.392;2024-02-04T14:44:22;11.20;99.90
43679;DHT22;29279;50.858;4.392;2024-02-04T14:46:49;11.20;99.90
43679;DHT22;29279;50.858;4.392;2024-02-04T14:49:15;11.20;99.90
43679;DHT22;29279;50.858;4.392;2024-02-04T14:51:41;11.30;99.90
43679;DHT22;29279;50.858;4.392;2024-02-04T14:54:07;11.30;99.90
43679;DHT22;29279;50.858;4.392;2024-02-04T14:56:40;11.30;99.90
43679;DHT22;29279;50.858;4.392;2024-02-04T14:59:08;11.40;99.90
43679;DHT22;29279;50.858;4.392;2024-02-04T15:01:34;11.50;99.90
43679;DHT22;29279;50.858;4.392;2024-02-04T15:04:00;11.50;99.90
43679;DHT22;29279;50.858;4.392;2024-02-04T15:06:26;11.40;99.90
43679;DHT22;29279;50.858;4.392;2024-02-04T15:08:52;11.50;99.90
43679;DHT22;29279;50.858;4.392;2024-02-04T15:11:18;11.60;99.90
43679;DHT22;29279;50.858;4.392;2024-02-04T15:13:45;11.60;99.90
43679;DHT22;29279;50.858;4.392;2024-02-04T15:16:11;11.60;99.90
43679;DHT22;29279;50.858;4.392;2024-02-04T15:18:38;11.60;99.90
43679;DHT22;29279;50.858;4.392;2024-02-04T15:21:04;11.50;99.90
43679;DHT22;29279;50.858;4.392;2024-02-04T15:23:30;11.60;99.90
43679;DHT22;29279;50.858;4.392;2024-02-04T15:25:56;11.50;99.90
43679;DHT22;29279;50.858;4.392;2024-02-04T15:28:23;11.40;99.90
43679;DHT22;29279;50.858;4.392;2024-02-04T15:30:49;11.40;99.90
43679;DHT22;29279;50.858;4.392;2024-02-04T15:33:15;11.50;99.90
43679;DHT22;29279;50.858;4.392;2024-02-04T15:35:41;11.50;99.90
43679;DHT22;29279;50.858;4.392;2024-02-04T15:38:07;11.50;99.90
43679;DHT22;29279;50.858;4.392;2024-02-04T15:40:33;11.40;99.90
43679;DHT22;29279;50.858;4.392;2024-02-04T15:42:59;11.40;99.90